Time,TemperatureF,DewpointF,PressureIn,WindDirection,WindDirectionDegrees,WindSpeedMPH,WindSpeedGustMPH,Humidity,HourlyPrecipIn,Conditions,Clouds,dailyrainin,SoftwareType,DateUTC
2013-03-08 00:21:00,33.0,32.0,29.84,SE,140,5.0,-999.0,98,0.00,,,-99.99,,2013-03-08 08:21:00,
2013-03-08 00:31:00,33.0,32.0,29.84,SE,140,5.0,-999.0,98,0.00,,,-99.99,,2013-03-08 08:31:00,
2013-03-08 00:41:00,33.0,32.0,29.84,SE,140,5.0,-999.0,98,0.00,,,-99.99,,2013-03-08 08:41:00,
2013-03-08 00:52:00,33.0,32.0,29.84,SE,140,5.0,-999.0,98,0.00,,,-99.99,,2013-03-08 08:52:00,
2013-03-08 01:21:00,33.0,32.0,29.82,SE,140,5.0,-999.0,95,0.00,,,-99.99,,2013-03-08 09:21:00,
2013-03-08 01:32:00,33.0,32.0,29.82,SE,140,5.0,-999.0,95,0.00,,,-99.99,,2013-03-08 09:32:00,
2013-03-08 01:42:00,33.0,32.0,29.82,SE,140,5.0,-999.0,95,0.00,,,-99.99,,2013-03-08 09:42:00,
2013-03-08 01:51:00,33.0,32.0,29.82,SE,140,5.0,-999.0,95,0.00,,,-99.99,,2013-03-08 09:51:00,
2013-03-08 02:21:00,33.0,32.0,29.79,South,170,3.0,-999.0,97,0.02,,,-99.99,,2013-03-08 10:21:00,
2013-03-08 02:31:00,33.0,32.0,29.79,South,170,3.0,-999.0,97,0.02,,,-99.99,,2013-03-08 10:31:00,
2013-03-08 02:41:00,33.0,32.0,29.79,South,170,3.0,-999.0,97,0.02,,,-99.99,,2013-03-08 10:41:00,
2013-03-08 02:51:00,33.0,32.0,29.79,South,170,3.0,-999.0,97,0.02,,,-99.99,,2013-03-08 10:51:00,
2013-03-08 03:21:00,32.0,32.0,29.76,South,170,5.0,-999.0,98,0.04,,,-99.99,,2013-03-08 11:21:00,
2013-03-08 03:32:00,32.0,32.0,29.76,South,170,5.0,-999.0,98,0.04,,,-99.99,,2013-03-08 11:32:00,
2013-03-08 03:41:00,32.0,32.0,29.76,South,170,5.0,-999.0,98,0.04,,,-99.99,,2013-03-08 11:41:00,
2013-03-08 03:52:00,32.0,32.0,29.76,South,170,5.0,-999.0,98,0.04,,,-99.99,,2013-03-08 11:52:00,
2013-03-08 04:22:00,32.0,32.0,29.75,North,0,0.0,-999.0,98,0.06,,,-99.99,,2013-03-08 12:22:00,
2013-03-08 04:32:00,32.0,32.0,29.75,North,0,0.0,-999.0,98,0.06,,,-99.99,,2013-03-08 12:32:00,
2013-03-08 04:42:00,32.0,32.0,29.75,North,0,0.0,-999.0,98,0.06,,,-99.99,,2013-03-08 12:42:00,
2013-03-08 04:52:00,32.0,32.0,29.75,North,0,0.0,-999.0,98,0.06,,,-99.99,,2013-03-08 12:52:00,
2013-03-08 05:21:00,32.0,32.0,29.74,North,0,0.0,-999.0,98,0.10,,,-99.99,,2013-03-08 13:21:00,
2013-03-08 05:32:00,32.0,32.0,29.74,North,0,0.0,-999.0,98,0.10,,,-99.99,,2013-03-08 13:32:00,
2013-03-08 05:42:00,32.0,32.0,29.74,North,0,0.0,-999.0,98,0.10,,,-99.99,,2013-03-08 13:42:00,
2013-03-08 05:52:00,32.0,32.0,29.74,North,0,0.0,-999.0,98,0.10,,,-99.99,,2013-03-08 13:52:00,
2013-03-08 06:22:00,30.0,29.0,29.75,South,170,6.0,-999.0,97,0.07,,,-99.99,,2013-03-08 14:22:00,
2013-03-08 06:32:00,30.0,29.0,29.75,South,170,6.0,-999.0,97,0.07,,,-99.99,,2013-03-08 14:32:00,
2013-03-08 06:42:00,30.0,29.0,29.75,South,170,6.0,-999.0,97,0.07,,,-99.99,,2013-03-08 14:42:00,
2013-03-08 06:52:00,30.0,29.0,29.75,South,170,6.0,-999.0,97,0.07,,,-99.99,,2013-03-08 14:52:00,
2013-03-08 07:22:00,29.0,29.0,29.80,South,170,3.0,-999.0,98,0.17,,,-99.99,,2013-03-08 15:22:00,
2013-03-08 07:32:00,29.0,29.0,29.80,South,170,3.0,-999.0,98,0.17,,,-99.99,,2013-03-08 15:32:00,
2013-03-08 07:42:00,29.0,29.0,29.80,South,170,3.0,-999.0,98,0.17,,,-99.99,,2013-03-08 15:42:00,
2013-03-08 07:52:00,29.0,29.0,29.80,South,170,3.0,-999.0,98,0.17,,,-99.99,,2013-03-08 15:52:00,
2013-03-08 08:21:00,29.0,29.0,29.81,North,0,0.0,-999.0,98,0.09,,,-99.99,,2013-03-08 16:21:00,
2013-03-08 08:32:00,29.0,29.0,29.81,North,0,0.0,-999.0,98,0.09,,,-99.99,,2013-03-08 16:32:00,
2013-03-08 08:42:00,29.0,29.0,29.81,North,0,0.0,-999.0,98,0.09,,,-99.99,,2013-03-08 16:42:00,
2013-03-08 08:51:00,29.0,29.0,29.81,North,0,0.0,-999.0,98,0.09,,,-99.99,,2013-03-08 16:51:00,
2013-03-08 09:21:00,31.0,31.0,29.81,SSE,160,5.0,-999.0,98,0.05,,,-99.99,,2013-03-08 17:21:00,
2013-03-08 09:32:00,31.0,31.0,29.81,SSE,160,5.0,-999.0,98,0.05,,,-99.99,,2013-03-08 17:32:00,
2013-03-08 09:41:00,31.0,31.0,29.81,SSE,160,5.0,-999.0,98,0.05,,,-99.99,,2013-03-08 17:41:00,
2013-03-08 09:52:00,31.0,31.0,29.81,SSE,160,5.0,-999.0,98,0.05,,,-99.99,,2013-03-08 17:52:00,
2013-03-08 10:21:00,31.0,30.0,29.84,ESE,110,1.0,-999.0,97,0.03,,,-99.99,,2013-03-08 18:21:00,
2013-03-08 10:31:00,31.0,30.0,29.84,ESE,110,1.0,-999.0,97,0.03,,,-99.99,,2013-03-08 18:31:00,
2013-03-08 10:42:00,31.0,30.0,29.84,ESE,110,1.0,-999.0,97,0.03,,,-99.99,,2013-03-08 18:42:00,
2013-03-08 10:51:00,31.0,30.0,29.84,ESE,110,1.0,-999.0,97,0.03,,,-99.99,,2013-03-08 18:51:00,
2013-03-08 11:21:00,32.0,30.0,29.84,North,0,0.0,-999.0,94,0.01,,,-99.99,,2013-03-08 19:21:00,
2013-03-08 11:32:00,32.0,30.0,29.84,North,0,0.0,-999.0,94,0.01,,,-99.99,,2013-03-08 19:32:00,
2013-03-08 11:41:00,32.0,30.0,29.84,North,0,0.0,-999.0,94,0.01,,,-99.99,,2013-03-08 19:41:00,
2013-03-08 11:51:00,32.0,30.0,29.84,North,0,0.0,-999.0,94,0.01,,,-99.99,,2013-03-08 19:51:00,
2013-03-08 12:21:00,33.0,32.0,29.86,North,0,0.0,-999.0,98,0.06,,,-99.99,,2013-03-08 20:21:00,
2013-03-08 12:32:00,33.0,32.0,29.86,North,0,0.0,-999.0,98,0.06,,,-99.99,,2013-03-08 20:32:00,
2013-03-08 12:42:00,33.0,32.0,29.86,North,0,0.0,-999.0,98,0.06,,,-99.99,,2013-03-08 20:42:00,
2013-03-08 12:52:00,33.0,32.0,29.86,North,0,0.0,-999.0,98,0.06,,,-99.99,,2013-03-08 20:52:00,
2013-03-08 13:21:00,33.0,32.0,29.85,North,0,0.0,-999.0,98,0.00,,,-99.99,,2013-03-08 21:21:00,
2013-03-08 13:32:00,33.0,32.0,29.85,North,0,0.0,-999.0,98,0.00,,,-99.99,,2013-03-08 21:32:00,
2013-03-08 13:42:00,33.0,32.0,29.85,North,0,0.0,-999.0,98,0.00,,,-99.99,,2013-03-08 21:42:00,
2013-03-08 13:51:00,33.0,32.0,29.85,North,0,0.0,-999.0,98,0.00,,,-99.99,,2013-03-08 21:51:00,
2013-03-08 14:22:00,32.0,32.0,29.85,SSW,210,1.0,-999.0,98,0.00,,,-99.99,,2013-03-08 22:22:00,
2013-03-08 14:32:00,32.0,32.0,29.85,SSW,210,1.0,-999.0,98,0.00,,,-99.99,,2013-03-08 22:32:00,
2013-03-08 14:42:00,32.0,32.0,29.85,SSW,210,1.0,-999.0,98,0.00,,,-99.99,,2013-03-08 22:42:00,
2013-03-08 14:52:00,32.0,32.0,29.85,SSW,210,1.0,-999.0,98,0.00,,,-99.99,,2013-03-08 22:52:00,
2013-03-08 15:21:00,32.0,32.0,29.85,North,0,0.0,-999.0,98,0.00,,,-99.99,,2013-03-08 23:21:00,
2013-03-08 15:32:00,32.0,32.0,29.85,North,0,0.0,-999.0,98,0.00,,,-99.99,,2013-03-08 23:32:00,
2013-03-08 15:42:00,32.0,32.0,29.85,North,0,0.0,-999.0,98,0.00,,,-99.99,,2013-03-08 23:42:00,
2013-03-08 15:52:00,32.0,32.0,29.85,North,0,0.0,-999.0,98,0.00,,,-99.99,,2013-03-08 23:52:00,
2013-03-08 16:21:00,32.0,32.0,29.87,North,0,0.0,-999.0,98,0.00,,,-99.99,,2013-03-09 00:21:00,
2013-03-08 16:32:00,32.0,32.0,29.87,North,0,0.0,-999.0,98,0.00,,,-99.99,,2013-03-09 00:32:00,
2013-03-08 16:42:00,32.0,32.0,29.87,North,0,0.0,-999.0,98,0.00,,,-99.99,,2013-03-09 00:42:00,
2013-03-08 16:51:00,32.0,32.0,29.87,North,0,0.0,-999.0,98,0.00,,,-99.99,,2013-03-09 00:51:00,
2013-03-08 19:31:00,32.0,32.0,29.95,North,0,0.0,-999.0,99,0.00,,,-99.99,,2013-03-09 03:31:00,
2013-03-08 19:41:00,32.0,32.0,29.95,North,0,0.0,-999.0,99,0.00,,,-99.99,,2013-03-09 03:41:00,
2013-03-08 19:52:00,32.0,32.0,29.95,North,0,0.0,-999.0,99,0.00,,,-99.99,,2013-03-09 03:52:00,
2013-03-08 20:22:00,32.0,32.0,29.98,North,0,0.0,-999.0,99,0.00,,,-99.99,,2013-03-09 04:22:00,
2013-03-08 20:31:00,32.0,32.0,29.98,North,0,0.0,-999.0,99,0.00,,,-99.99,,2013-03-09 04:31:00,
2013-03-08 20:41:00,32.0,32.0,29.98,North,0,0.0,-999.0,99,0.00,,,-99.99,,2013-03-09 04:41:00,
2013-03-08 20:51:00,32.0,32.0,29.98,North,0,0.0,-999.0,99,0.00,,,-99.99,,2013-03-09 04:51:00,
2013-03-08 21:21:00,32.0,32.0,30.01,SSW,200,3.0,-999.0,99,0.00,,,-99.99,,2013-03-09 05:21:00,
2013-03-08 21:31:00,32.0,32.0,30.01,SSW,200,3.0,-999.0,99,0.00,,,-99.99,,2013-03-09 05:31:00,
2013-03-08 21:42:00,32.0,32.0,30.01,SSW,200,3.0,-999.0,99,0.00,,,-99.99,,2013-03-09 05:42:00,
2013-03-08 21:52:00,32.0,32.0,30.01,SSW,200,3.0,-999.0,99,0.00,,,-99.99,,2013-03-09 05:52:00,
2013-03-08 22:22:00,32.0,32.0,30.02,West,270,2.0,-999.0,99,0.00,,,-99.99,,2013-03-09 06:22:00,
2013-03-08 22:31:00,32.0,32.0,30.02,West,270,2.0,-999.0,99,0.00,,,-99.99,,2013-03-09 06:31:00,
2013-03-08 22:42:00,32.0,32.0,30.02,West,270,2.0,-999.0,99,0.00,,,-99.99,,2013-03-09 06:42:00,
2013-03-08 22:51:00,32.0,32.0,30.02,West,270,2.0,-999.0,99,0.00,,,-99.99,,2013-03-09 06:51:00,
2013-03-08 23:21:00,32.0,32.0,30.02,North,0,0.0,-999.0,99,0.00,,,-99.99,,2013-03-09 07:21:00,
2013-03-08 23:31:00,32.0,32.0,30.02,North,0,0.0,-999.0,99,0.00,,,-99.99,,2013-03-09 07:31:00,
2013-03-08 23:41:00,32.0,32.0,30.02,North,0,0.0,-999.0,99,0.00,,,-99.99,,2013-03-09 07:41:00,
2013-03-08 23:51:00,32.0,32.0,30.02,North,0,0.0,-999.0,99,0.00,,,-99.99,,2013-03-09 07:51:00,